Steuben, Wisconsin
Current Conditions -  °F | °C
As of 7:53 AM on Wednesday 26 Nov 2014 (Local Time) from KOVS Reporting Station
Overcast Overcast  
Wind Chill:   Ceiling: 900
Heat Index: 15°   Visibility: 7mi
Dew Point: 12°   Wind: 5mph
Humidity: 88%   Direction: 60°ENE
Pressure: 30.13"   Gusts: NA
Location:  43.18°N, 90.86°W
Report Text: KOVS 261353Z AUTO 06004KT 7SM OVC009 M09/M11 A3013 RMK AO2 SLP219 T10941111
Loading
Personal Weather Stations






























Interactive Weather Map New forecast layout! Learn more

10-Day Weather Forecast

Advertisements
Track Severe Weather on mobile